createdAt,value
2022-12-25T00:02:07.229Z,101293.20
2022-12-25T00:04:44.460Z,101293.00
2022-12-25T00:07:21.279Z,101296.20
2022-12-25T00:09:58.305Z,101297.80
2022-12-25T00:12:34.839Z,101300.00
2022-12-25T00:15:13.913Z,101297.80
2022-12-25T00:17:51.221Z,101299.60
2022-12-25T00:20:27.978Z,101308.60
2022-12-25T00:23:05.425Z,101307.80
2022-12-25T00:25:43.900Z,101307.20
2022-12-25T00:28:20.040Z,101305.80
2022-12-25T00:30:56.720Z,101305.00
2022-12-25T00:33:33.451Z,101300.20
2022-12-25T00:36:12.374Z,101302.00
2022-12-25T00:38:49.314Z,101306.60
2022-12-25T00:41:40.763Z,101302.80
2022-12-25T00:44:18.303Z,101298.20
2022-12-25T00:46:55.642Z,101304.00
2022-12-25T00:49:32.624Z,101301.20
2022-12-25T00:52:10.382Z,101302.60
2022-12-25T00:54:46.944Z,101298.60
2022-12-25T00:57:23.461Z,101301.60
2022-12-25T01:00:00.417Z,101304.20
2022-12-25T01:02:37.368Z,101303.00
2022-12-25T01:05:16.926Z,101300.80
2022-12-25T01:07:54.352Z,101302.40
2022-12-25T01:10:31.131Z,101305.60
2022-12-25T01:13:08.442Z,101305.20
2022-12-25T01:15:46.503Z,101304.40
2022-12-25T01:18:23.523Z,101308.20
2022-12-25T01:21:00.789Z,101309.20
2022-12-25T01:23:37.895Z,101306.40
2022-12-25T01:26:17.846Z,101312.00
2022-12-25T01:28:54.376Z,101309.20
2022-12-25T01:31:31.189Z,101313.40
2022-12-25T01:34:07.980Z,101317.60
2022-12-25T01:36:45.160Z,101314.00
2022-12-25T01:39:22.178Z,101314.20
2022-12-25T01:41:58.509Z,101311.80
2022-12-25T01:45:25.433Z,101317.60
2022-12-25T01:48:03.425Z,101316.20
2022-12-25T01:50:41.855Z,101319.80
2022-12-25T01:53:19.305Z,101317.80
2022-12-25T01:56:00.075Z,101314.40
2022-12-25T01:58:37.540Z,101315.80
2022-12-25T02:01:16.476Z,101317.20
2022-12-25T02:03:54.605Z,101321.00
2022-12-25T02:06:32.735Z,101322.60
2022-12-25T02:09:09.573Z,101318.20
2022-12-25T02:12:01.135Z,101315.80
2022-12-25T02:14:40.798Z,101318.60
2022-12-25T02:17:26.161Z,101319.40
2022-12-25T02:20:46.276Z,101318.40
2022-12-25T02:24:14.759Z,101322.60
2022-12-25T02:27:10.376Z,101325.20
2022-12-25T02:30:02.066Z,101324.00
2022-12-25T02:32:45.863Z,101326.00
2022-12-25T02:35:31.252Z,101323.40
2022-12-25T02:38:16.165Z,101322.20
2022-12-25T02:41:00.053Z,101325.40
2022-12-25T02:44:00.428Z,101323.60
2022-12-25T02:46:57.048Z,101325.40
2022-12-25T02:49:51.690Z,101321.80
2022-12-25T02:53:04.112Z,101319.20
2022-12-25T02:56:08.948Z,101317.60
2022-12-25T02:59:05.463Z,101316.20
2022-12-25T03:02:00.969Z,101323.20
2022-12-25T03:04:55.592Z,101318.60
2022-12-25T03:07:35.918Z,101316.20
2022-12-25T03:10:35.054Z,101315.40
2022-12-25T03:13:17.307Z,101319.80
2022-12-25T03:16:11.311Z,101322.00
2022-12-25T03:18:48.337Z,101317.80
2022-12-25T03:21:56.331Z,101316.60
2022-12-25T03:24:49.869Z,101311.80
2022-12-25T03:27:27.244Z,101307.80
2022-12-25T03:30:20.453Z,101307.20
2022-12-25T03:33:36.591Z,101309.60
2022-12-25T03:36:21.406Z,101315.80
2022-12-25T03:39:25.205Z,101310.60
2022-12-25T03:42:24.646Z,101310.40
2022-12-25T03:45:26.820Z,101306.00
2022-12-25T03:48:20.462Z,101309.20
2022-12-25T03:51:21.613Z,101313.40
2022-12-25T03:54:22.772Z,101312.20
2022-12-25T03:57:17.468Z,101316.20
2022-12-25T04:00:10.078Z,101315.40
2022-12-25T04:03:03.710Z,101322.20
2022-12-25T04:05:57.398Z,101319.60
2022-12-25T04:08:52.309Z,101324.20
2022-12-25T04:11:44.896Z,101326.20
2022-12-25T04:14:38.888Z,101327.00
2022-12-25T04:17:32.429Z,101334.80
2022-12-25T04:20:30.035Z,101332.60
2022-12-25T04:23:23.570Z,101336.40
2022-12-25T04:26:18.969Z,101334.40
2022-12-25T04:29:12.244Z,101331.00
2022-12-25T04:32:06.253Z,101334.60
2022-12-25T04:34:59.826Z,101334.60
2022-12-25T04:37:36.928Z,101340.00
2022-12-25T04:40:18.855Z,101345.20
2022-12-25T04:42:57.259Z,101349.80
2022-12-25T04:45:33.273Z,101350.40
2022-12-25T04:48:10.689Z,101350.40
2022-12-25T04:50:46.918Z,101351.60
2022-12-25T04:53:22.828Z,101353.20
2022-12-25T04:56:08.856Z,101351.00
2022-12-25T04:58:44.793Z,101358.20
2022-12-25T05:01:20.995Z,101359.40
2022-12-25T05:03:57.624Z,101361.00
2022-12-25T05:06:33.501Z,101367.40
2022-12-25T05:09:10.671Z,101370.60
2022-12-25T05:11:47.270Z,101368.20
2022-12-25T05:14:24.847Z,101367.00
2022-12-25T05:17:01.138Z,101368.00
2022-12-25T05:19:37.461Z,101371.40
2022-12-25T05:22:14.677Z,101371.00
2022-12-25T05:24:51.185Z,101368.20
2022-12-25T05:27:27.745Z,101370.80
2022-12-25T05:30:04.534Z,101370.40
2022-12-25T05:32:40.785Z,101377.60
2022-12-25T05:35:18.661Z,101370.60
2022-12-25T05:37:55.528Z,101365.40
2022-12-25T05:40:32.696Z,101363.80
2022-12-25T05:43:08.347Z,101366.80
2022-12-25T05:45:44.685Z,101366.60
2022-12-25T05:48:20.826Z,101368.20
2022-12-25T05:50:58.149Z,101372.60
2022-12-25T05:53:36.684Z,101370.00
2022-12-25T05:56:14.847Z,101372.20
2022-12-25T05:58:52.225Z,101370.80
2022-12-25T06:01:30.031Z,101370.80
2022-12-25T06:04:12.389Z,101373.60
2022-12-25T06:06:49.809Z,101378.00
2022-12-25T06:09:26.635Z,101379.60
2022-12-25T06:12:03.422Z,101384.20
2022-12-25T06:14:40.252Z,101389.60
2022-12-25T06:17:16.617Z,101398.20
2022-12-25T06:19:53.478Z,101400.40
2022-12-25T06:22:33.745Z,101399.20
2022-12-25T06:25:14.347Z,101407.40
2022-12-25T06:27:51.896Z,101415.40
2022-12-25T06:30:28.663Z,101418.40
2022-12-25T06:33:06.296Z,101416.80
2022-12-25T06:35:45.693Z,101422.80
2022-12-25T06:38:22.662Z,101427.00
2022-12-25T06:41:05.780Z,101427.60
2022-12-25T06:43:42.792Z,101428.40
2022-12-25T06:46:20.380Z,101430.60
2022-12-25T06:48:56.814Z,101430.00
2022-12-25T06:51:35.266Z,101421.60
2022-12-25T06:54:13.845Z,101421.60
2022-12-25T06:56:51.300Z,101422.60
2022-12-25T06:59:28.798Z,101422.00
2022-12-25T07:02:05.885Z,101421.00
2022-12-25T07:04:44.638Z,101423.60
2022-12-25T07:07:22.630Z,101426.00
2022-12-25T07:09:59.455Z,101426.60
2022-12-25T07:12:36.527Z,101427.40
2022-12-25T07:15:18.031Z,101430.00
2022-12-25T07:17:54.747Z,101430.00
2022-12-25T07:20:32.553Z,101431.80
2022-12-25T07:23:10.112Z,101436.00
2022-12-25T07:25:46.815Z,101436.60
2022-12-25T07:28:23.612Z,101432.40
2022-12-25T07:31:03.461Z,101437.00
2022-12-25T07:33:40.023Z,101432.60
2022-12-25T07:36:22.724Z,101439.00
2022-12-25T07:38:59.339Z,101437.00
2022-12-25T07:41:36.577Z,101444.40
2022-12-25T07:44:23.097Z,101449.40
2022-12-25T07:47:00.656Z,101453.60
2022-12-25T07:49:38.301Z,101456.60
2022-12-25T07:52:15.171Z,101462.20
2022-12-25T07:54:51.656Z,101462.20
2022-12-25T07:57:28.952Z,101466.00
2022-12-25T08:00:06.378Z,101472.00
2022-12-25T08:02:48.783Z,101475.20
2022-12-25T08:05:27.140Z,101476.20
2022-12-25T08:08:03.644Z,101479.60
2022-12-25T08:10:40.368Z,101483.20
2022-12-25T08:13:17.475Z,101485.80
2022-12-25T08:15:59.875Z,101488.40
2022-12-25T08:18:36.644Z,101488.80
2022-12-25T08:21:17.579Z,101493.40
2022-12-25T08:23:54.617Z,101492.20
2022-12-25T08:26:31.282Z,101493.20
2022-12-25T08:29:07.274Z,101496.20
2022-12-25T08:31:46.956Z,101499.60
2022-12-25T08:34:23.742Z,101497.00
2022-12-25T08:37:00.234Z,101499.60
2022-12-25T08:39:37.515Z,101506.20
2022-12-25T08:42:15.700Z,101507.60
2022-12-25T08:44:52.766Z,101510.60
2022-12-25T08:47:29.477Z,101513.80
2022-12-25T08:50:05.886Z,101512.80
2022-12-25T08:52:42.790Z,101514.40
2022-12-25T08:55:19.761Z,101515.40
2022-12-25T08:58:00.128Z,101518.20
2022-12-25T09:00:36.812Z,101520.60
2022-12-25T09:03:13.682Z,101526.00
2022-12-25T09:05:50.577Z,101526.00
2022-12-25T09:08:28.084Z,101523.80
2022-12-25T09:11:10.744Z,101526.60
2022-12-25T09:13:47.845Z,101539.00
2022-12-25T09:16:27.861Z,101542.80
2022-12-25T09:19:04.918Z,101549.20
2022-12-25T09:21:41.259Z,101553.00
2022-12-25T09:24:18.624Z,101557.60
2022-12-25T09:26:55.253Z,101560.00
2022-12-25T09:29:32.207Z,101566.00
2022-12-25T09:32:10.771Z,101557.60
2022-12-25T09:34:47.169Z,101559.00
2022-12-25T09:37:24.572Z,101558.60
2022-12-25T09:40:01.438Z,101558.20
2022-12-25T09:42:39.005Z,101557.80
2022-12-25T09:45:21.618Z,101558.00
2022-12-25T09:48:00.657Z,101562.60
2022-12-25T09:50:50.238Z,101561.20
2022-12-25T09:53:30.634Z,101560.40
2022-12-25T09:56:16.213Z,101562.80
2022-12-25T09:58:53.531Z,101562.60
2022-12-25T10:01:43.474Z,101562.60
2022-12-25T10:04:40.990Z,101563.20
2022-12-25T10:07:28.532Z,101564.20
2022-12-25T10:10:23.975Z,101560.40
2022-12-25T10:13:12.752Z,101558.80
2022-12-25T10:16:01.114Z,101559.80
2022-12-25T10:19:22.640Z,101560.40
2022-12-25T10:22:04.144Z,101557.80
2022-12-25T10:24:46.482Z,101557.00
2022-12-25T10:27:33.382Z,101554.40
2022-12-25T10:30:20.498Z,101554.60
2022-12-25T10:32:58.097Z,101552.60
2022-12-25T10:35:36.280Z,101550.00
2022-12-25T10:38:21.161Z,101553.00
2022-12-25T10:41:21.477Z,101548.00
2022-12-25T10:44:00.360Z,101547.00
2022-12-25T10:46:36.817Z,101546.60
2022-12-25T10:49:18.981Z,101547.00
2022-12-25T10:51:55.457Z,101549.80
2022-12-25T10:54:33.596Z,101541.00
2022-12-25T10:57:19.523Z,101537.00
2022-12-25T10:59:57.985Z,101535.60
2022-12-25T11:02:38.799Z,101529.00
2022-12-25T11:05:25.846Z,101530.00
2022-12-25T11:08:02.749Z,101526.20
2022-12-25T11:10:44.302Z,101523.20
2022-12-25T11:13:28.754Z,101519.40
2022-12-25T11:16:16.586Z,101520.40
2022-12-25T11:18:56.347Z,101515.60
2022-12-25T11:21:36.551Z,101509.00
2022-12-25T11:24:23.489Z,101505.40
2022-12-25T11:27:01.986Z,101506.00
2022-12-25T11:29:48.359Z,101498.20
2022-12-25T11:32:32.005Z,101495.40
2022-12-25T11:35:17.457Z,101490.00
2022-12-25T11:37:57.205Z,101490.80
2022-12-25T11:40:52.379Z,101491.20
2022-12-25T11:43:36.402Z,101491.80
2022-12-25T11:46:22.840Z,101491.60
2022-12-25T11:49:08.513Z,101491.60
2022-12-25T11:51:51.468Z,101490.00
2022-12-25T11:54:41.577Z,101490.60
2022-12-25T11:57:18.759Z,101486.20
2022-12-25T12:00:09.347Z,101478.20
2022-12-25T12:02:56.258Z,101483.40
2022-12-25T12:05:41.753Z,101483.20
2022-12-25T12:08:18.314Z,101482.60
2022-12-25T12:11:18.879Z,101479.00
2022-12-25T12:14:39.813Z,101482.80
2022-12-25T12:17:20.031Z,101479.80
2022-12-25T12:19:56.401Z,101474.20
2022-12-25T12:22:35.160Z,101474.20
2022-12-25T12:25:22.519Z,101469.80
2022-12-25T12:28:05.845Z,101463.80
2022-12-25T12:30:43.474Z,101458.00
2022-12-25T12:33:29.481Z,101459.20
2022-12-25T12:36:10.416Z,101462.00
2022-12-25T12:38:48.693Z,101458.20
2022-12-25T12:41:25.310Z,101455.60
2022-12-25T12:44:07.741Z,101458.20
2022-12-25T12:46:56.474Z,101457.40
2022-12-25T12:49:35.288Z,101458.60
2022-12-25T12:52:26.357Z,101457.60
2022-12-25T12:55:09.720Z,101460.20
2022-12-25T12:57:47.792Z,101460.00
2022-12-25T13:00:26.636Z,101458.40
2022-12-25T13:03:53.295Z,101461.60
2022-12-25T13:06:42.391Z,101458.00
2022-12-25T13:09:41.402Z,101459.20
2022-12-25T13:12:21.251Z,101463.00
2022-12-25T13:14:58.300Z,101463.00
2022-12-25T13:17:35.365Z,101467.60
2022-12-25T13:20:25.268Z,101466.80
2022-12-25T13:23:02.442Z,101469.80
2022-12-25T13:25:39.384Z,101472.80
2022-12-25T13:28:26.931Z,101471.60
2022-12-25T13:31:17.175Z,101467.60
2022-12-25T13:34:01.353Z,101475.40
2022-12-25T13:36:43.018Z,101473.00
2022-12-25T13:39:24.864Z,101471.20
2022-12-25T13:42:10.051Z,101475.20
2022-12-25T13:44:53.201Z,101478.60
2022-12-25T13:47:33.151Z,101481.20
2022-12-25T13:50:27.385Z,101483.80
2022-12-25T13:53:18.542Z,101484.40
2022-12-25T13:56:00.810Z,101487.80
2022-12-25T13:58:41.634Z,101489.40
2022-12-25T14:01:21.347Z,101486.60
2022-12-25T14:03:58.517Z,101486.80
2022-12-25T14:06:36.455Z,101486.00
2022-12-25T14:09:14.374Z,101488.80
2022-12-25T14:11:56.556Z,101488.60
2022-12-25T14:14:34.074Z,101485.40
2022-12-25T14:17:13.114Z,101489.60
2022-12-25T14:20:03.780Z,101488.40
2022-12-25T14:22:44.314Z,101491.00
2022-12-25T14:25:26.159Z,101492.60
2022-12-25T14:28:07.423Z,101489.60
2022-12-25T14:30:47.450Z,101492.00
2022-12-25T14:33:27.892Z,101490.60
2022-12-25T14:36:04.274Z,101492.60
2022-12-25T14:38:42.817Z,101490.60
2022-12-25T14:41:38.189Z,101497.20
2022-12-25T14:44:40.932Z,101501.20
2022-12-25T14:47:24.833Z,101503.20
2022-12-25T14:50:02.019Z,101501.00
2022-12-25T14:52:47.586Z,101500.20
2022-12-25T14:55:29.892Z,101502.40
2022-12-25T14:58:10.551Z,101507.60
2022-12-25T15:00:47.270Z,101498.80
2022-12-25T15:03:33.034Z,101495.80
2022-12-25T15:06:21.637Z,101501.40
2022-12-25T15:09:08.114Z,101506.20
2022-12-25T15:11:44.868Z,101512.80
2022-12-25T15:14:21.375Z,101509.20
2022-12-25T15:17:01.250Z,101517.00
2022-12-25T15:19:40.824Z,101517.80
2022-12-25T15:22:20.265Z,101520.00
2022-12-25T15:25:01.657Z,101525.80
2022-12-25T15:27:39.364Z,101522.00
2022-12-25T15:30:21.825Z,101524.20
2022-12-25T15:32:58.376Z,101526.20
2022-12-25T15:35:38.589Z,101526.00
2022-12-25T15:38:16.108Z,101526.80
2022-12-25T15:40:55.446Z,101529.20
2022-12-25T15:43:41.339Z,101524.40
2022-12-25T15:46:19.122Z,101522.00
2022-12-25T15:48:56.180Z,101522.60
2022-12-25T15:51:32.832Z,101524.40
2022-12-25T15:54:09.672Z,101530.60
2022-12-25T15:56:48.822Z,101527.40
2022-12-25T15:59:26.116Z,101527.60
2022-12-25T16:02:04.879Z,101524.80
2022-12-25T16:04:43.621Z,101526.80
2022-12-25T16:07:24.155Z,101525.40
2022-12-25T16:10:00.132Z,101528.60
2022-12-25T16:12:36.834Z,101525.40
2022-12-25T16:15:18.676Z,101530.00
2022-12-25T16:17:54.576Z,101532.80
2022-12-25T16:20:31.432Z,101532.00
2022-12-25T16:23:07.910Z,101526.80
2022-12-25T16:25:45.008Z,101522.20
2022-12-25T16:28:22.107Z,101523.00
2022-12-25T16:30:59.130Z,101528.20
2022-12-25T16:33:35.620Z,101527.40
2022-12-25T16:36:15.557Z,101528.60
2022-12-25T16:38:52.198Z,101530.00
2022-12-25T16:41:28.335Z,101530.20
2022-12-25T16:44:10.295Z,101528.20
2022-12-25T16:46:47.341Z,101528.20
2022-12-25T16:49:24.429Z,101524.60
2022-12-25T16:52:01.025Z,101527.20
2022-12-25T16:54:38.418Z,101527.60
2022-12-25T16:57:15.935Z,101526.40
2022-12-25T16:59:52.957Z,101533.20
2022-12-25T17:02:30.302Z,101534.80
2022-12-25T17:05:07.205Z,101533.20
2022-12-25T17:07:45.393Z,101537.20
2022-12-25T17:10:21.499Z,101539.20
2022-12-25T17:12:58.615Z,101538.20
2022-12-25T17:15:35.199Z,101532.00
2022-12-25T17:18:12.017Z,101522.40
2022-12-25T17:20:57.507Z,101519.80
2022-12-25T17:23:34.546Z,101524.20
2022-12-25T17:26:12.733Z,101528.40
2022-12-25T17:28:50.019Z,101528.60
2022-12-25T17:31:26.975Z,101533.00
2022-12-25T17:34:06.084Z,101537.80
2022-12-25T17:36:44.151Z,101534.00
2022-12-25T17:39:21.236Z,101534.00
2022-12-25T17:41:59.157Z,101534.80
2022-12-25T17:44:36.304Z,101536.20
2022-12-25T17:47:12.528Z,101540.00
2022-12-25T17:49:49.295Z,101538.20
2022-12-25T17:52:25.517Z,101537.80
2022-12-25T17:55:02.983Z,101536.00
2022-12-25T17:57:41.378Z,101536.40
2022-12-25T18:00:23.937Z,101531.80
2022-12-25T18:03:08.844Z,101539.40
2022-12-25T18:05:47.233Z,101541.80
2022-12-25T18:08:24.340Z,101545.00
2022-12-25T18:11:04.240Z,101552.20
2022-12-25T18:13:42.263Z,101542.60
2022-12-25T18:16:20.228Z,101545.80
2022-12-25T18:18:57.305Z,101548.20
2022-12-25T18:21:34.491Z,101564.00
2022-12-25T18:24:13.837Z,101563.60
2022-12-25T18:26:50.482Z,101559.20
2022-12-25T18:29:26.858Z,101555.80
2022-12-25T18:32:04.417Z,101559.00
2022-12-25T18:34:41.709Z,101559.00
2022-12-25T18:37:18.676Z,101561.80
2022-12-25T18:39:55.211Z,101558.80
2022-12-25T18:42:43.820Z,101550.60
2022-12-25T18:45:24.211Z,101547.60
2022-12-25T18:48:03.809Z,101549.40
2022-12-25T18:50:41.729Z,101550.00
2022-12-25T18:53:18.597Z,101554.40
2022-12-25T18:55:55.771Z,101558.80
2022-12-25T18:58:32.216Z,101557.00
2022-12-25T19:01:14.637Z,101553.20
2022-12-25T19:03:53.873Z,101547.40
2022-12-25T19:06:34.725Z,101552.20
2022-12-25T19:09:11.287Z,101551.60
2022-12-25T19:11:48.156Z,101546.60
2022-12-25T19:14:24.639Z,101551.20
2022-12-25T19:17:02.151Z,101558.00
2022-12-25T19:19:40.170Z,101558.80
2022-12-25T19:22:17.566Z,101559.60
2022-12-25T19:24:54.268Z,101561.00
2022-12-25T19:27:31.732Z,101554.80
2022-12-25T19:30:12.418Z,101551.20
2022-12-25T19:32:49.176Z,101552.00
2022-12-25T19:35:26.527Z,101547.60
2022-12-25T19:38:02.577Z,101552.60
2022-12-25T19:40:40.989Z,101558.20
2022-12-25T19:43:17.152Z,101549.00
2022-12-25T19:45:53.889Z,101545.60
2022-12-25T19:48:31.049Z,101541.00
2022-12-25T19:51:06.565Z,101545.00
2022-12-25T19:53:43.878Z,101549.20
2022-12-25T19:56:21.040Z,101548.00
2022-12-25T19:58:58.027Z,101551.20
2022-12-25T20:01:36.500Z,101553.40
2022-12-25T20:04:13.497Z,101553.40
2022-12-25T20:06:49.219Z,101559.20
2022-12-25T20:09:26.602Z,101561.00
2022-12-25T20:12:04.378Z,101563.40
2022-12-25T20:14:41.550Z,101563.80
2022-12-25T20:17:18.936Z,101564.60
2022-12-25T20:19:55.472Z,101572.40
2022-12-25T20:22:32.487Z,101572.80
2022-12-25T20:25:12.020Z,101570.20
2022-12-25T20:27:48.681Z,101569.00
2022-12-25T20:30:26.861Z,101561.80
2022-12-25T20:33:03.709Z,101561.60
2022-12-25T20:35:40.705Z,101568.20
2022-12-25T20:38:18.839Z,101571.60
2022-12-25T20:43:59.900Z,101575.40
2022-12-25T20:46:37.456Z,101585.00
2022-12-25T20:49:14.428Z,101579.40
2022-12-25T20:51:51.853Z,101578.80
2022-12-25T20:54:28.915Z,101579.60
2022-12-25T20:57:05.925Z,101580.40
2022-12-25T20:59:44.637Z,101583.20
2022-12-25T21:02:34.210Z,101589.60
2022-12-25T21:05:15.606Z,101594.80
2022-12-25T21:07:52.772Z,101595.60
2022-12-25T21:10:30.144Z,101597.20
2022-12-25T21:13:07.314Z,101600.00
2022-12-25T21:15:48.370Z,101598.00
2022-12-25T21:18:26.237Z,101600.00
2022-12-25T21:21:07.977Z,101601.60
2022-12-25T21:23:45.856Z,101592.40
2022-12-25T21:26:27.729Z,101598.00
2022-12-25T21:29:05.806Z,101594.20
2022-12-25T21:31:56.113Z,101601.00
2022-12-25T21:34:34.635Z,101604.80
2022-12-25T21:37:11.700Z,101595.20
2022-12-25T21:39:51.696Z,101597.00
2022-12-25T21:42:28.525Z,101600.80
2022-12-25T21:45:05.391Z,101596.00
2022-12-25T21:47:59.841Z,101597.00
2022-12-25T21:50:56.499Z,101598.80
2022-12-25T21:53:33.134Z,101600.40
2022-12-25T21:56:10.670Z,101614.80
2022-12-25T21:58:47.410Z,101610.60
2022-12-25T22:01:25.149Z,101605.20
2022-12-25T22:04:06.360Z,101605.40
2022-12-25T22:07:00.471Z,101609.00
2022-12-25T22:09:37.610Z,101605.20
2022-12-25T22:12:34.480Z,101607.40
2022-12-25T22:15:16.812Z,101610.40
2022-12-25T22:18:10.559Z,101604.60
2022-12-25T22:20:46.938Z,101606.20
2022-12-25T22:23:23.086Z,101604.80
2022-12-25T22:26:00.753Z,101614.20
2022-12-25T22:28:37.355Z,101610.80
2022-12-25T22:31:16.285Z,101615.60
2022-12-25T22:33:52.924Z,101610.00
2022-12-25T22:36:29.344Z,101615.80
2022-12-25T22:39:07.134Z,101615.60
2022-12-25T22:41:43.542Z,101616.80
2022-12-25T22:44:19.555Z,101620.00
2022-12-25T22:46:57.722Z,101614.60
2022-12-25T22:49:35.305Z,101616.60
2022-12-25T22:52:12.116Z,101613.20
2022-12-25T22:54:48.910Z,101620.40
2022-12-25T22:57:25.268Z,101617.20
2022-12-25T23:00:01.675Z,101617.60
2022-12-25T23:02:38.506Z,101612.00
2022-12-25T23:05:17.776Z,101607.60
2022-12-25T23:07:54.448Z,101606.80
2022-12-25T23:10:31.181Z,101606.60
2022-12-25T23:13:24.766Z,101607.80
2022-12-25T23:16:01.721Z,101614.80
2022-12-25T23:18:55.897Z,101612.20
2022-12-25T23:21:49.214Z,101613.60
2022-12-25T23:24:42.597Z,101612.00
2022-12-25T23:27:19.087Z,101611.40
2022-12-25T23:29:55.423Z,101612.00
2022-12-25T23:32:32.307Z,101606.20
2022-12-25T23:35:13.503Z,101611.00
2022-12-25T23:37:53.256Z,101614.20
2022-12-25T23:40:30.534Z,101613.40
2022-12-25T23:43:07.839Z,101610.20
2022-12-25T23:45:44.644Z,101618.00
2022-12-25T23:48:22.453Z,101619.60
2022-12-25T23:51:00.152Z,101619.00
2022-12-25T23:53:35.757Z,101617.00
2022-12-25T23:56:13.674Z,101617.40
2022-12-25T23:58:52.066Z,101617.60
